Gulliver, Michigan
Current Conditions -  °F | °C
As of 5:33 PM on Sunday 23 Nov 2014 (Local Time) from KISQ Reporting Station
Haze Haze  
Wind Chill: 37°   Ceiling: 300
Heat Index: 41°   Visibility: 1mi
Dew Point: 41°   Wind: 7mph
Humidity: 100%   Direction: 140°SE
Pressure: 29.5"   Gusts: NA
Location:  45.99°N, 86.01°W
Report Text: KISQ 232233Z AUTO 14006KT 1SM BR OVC003 05/05 A2950 RMK AO2 T00510051
Loading
Personal Weather Stations






























Interactive Weather Map New forecast layout! Learn more

10-Day Weather Forecast

Advertisements
Track Severe Weather on mobile